Browning, Montana
Current Conditions -  °F | °C
As of 4:56 PM on Friday 24 Oct 2014 (Local Time) from KCTB Reporting Station
Clear Clear  
Wind Chill: 51°   Ceiling: Unl
Heat Index: 51°   Visibility: 10mi
Dew Point: 30°   Wind: 24mph
Humidity: 44%   Direction: 250°WSW
Pressure: 30.03"   Gusts: 32mph
Location:  48.56°N, 113.01°W
Report Text: KCTB 242256Z AUTO 25021G28KT 10SM CLR 11/M01 A3003 RMK AO2 PK WND 25028/2252 SLP172 T01061011
Loading
Personal Weather Stations






























Interactive Weather Map
Tropical Storm Tracking
New forecast layout! Learn more

10-Day Weather Forecast

Advertisements
Track Severe Weather on mobile